sensor_id;sensor_type;location;lat;lon;timestamp;temperature;humidity
46976;DHT22;32724;51.094;6.996;2023-04-15T00:01:46;7.70;99.90
46976;DHT22;32724;51.094;6.996;2023-04-15T00:04:12;7.60;99.90
46976;DHT22;32724;51.094;6.996;2023-04-15T00:06:37;7.50;99.90
46976;DHT22;32724;51.094;6.996;2023-04-15T00:09:04;7.40;99.90
46976;DHT22;32724;51.094;6.996;2023-04-15T00:11:29;7.40;99.90
46976;DHT22;32724;51.094;6.996;2023-04-15T00:13:55;7.40;99.90
46976;DHT22;32724;51.094;6.996;2023-04-15T00:16:20;7.40;99.90
46976;DHT22;32724;51.094;6.996;2023-04-15T00:18:46;7.40;99.90
46976;DHT22;32724;51.094;6.996;2023-04-15T00:21:11;7.50;99.90
46976;DHT22;32724;51.094;6.996;2023-04-15T00:23:37;7.60;99.90
46976;DHT22;32724;51.094;6.996;2023-04-15T00:26:02;7.60;99.90
46976;DHT22;32724;51.094;6.996;2023-04-15T00:28:28;7.60;99.90
46976;DHT22;32724;51.094;6.996;2023-04-15T00:30:53;7.80;99.90
46976;DHT22;32724;51.094;6.996;2023-04-15T00:33:19;7.90;99.90
46976;DHT22;32724;51.094;6.996;2023-04-15T00:35:44;8.00;99.90
46976;DHT22;32724;51.094;6.996;2023-04-15T00:38:10;8.10;99.90
46976;DHT22;32724;51.094;6.996;2023-04-15T00:40:35;8.20;99.90
46976;DHT22;32724;51.094;6.996;2023-04-15T00:43:01;8.20;99.90
46976;DHT22;32724;51.094;6.996;2023-04-15T00:45:28;8.20;99.90
46976;DHT22;32724;51.094;6.996;2023-04-15T00:47:54;8.20;99.90
46976;DHT22;32724;51.094;6.996;2023-04-15T00:50:20;8.20;99.90
46976;DHT22;32724;51.094;6.996;2023-04-15T00:52:45;8.20;99.90
46976;DHT22;32724;51.094;6.996;2023-04-15T00:55:11;8.20;99.90
46976;DHT22;32724;51.094;6.996;2023-04-15T00:57:37;8.10;99.90
46976;DHT22;32724;51.094;6.996;2023-04-15T01:00:03;8.10;99.90
46976;DHT22;32724;51.094;6.996;2023-04-15T01:02:32;7.70;99.90
46976;DHT22;32724;51.094;6.996;2023-04-15T01:04:58;7.50;99.90
46976;DHT22;32724;51.094;6.996;2023-04-15T01:07:23;7.40;99.90
46976;DHT22;32724;51.094;6.996;2023-04-15T01:09:49;7.30;99.90
46976;DHT22;32724;51.094;6.996;2023-04-15T01:12:14;7.30;99.90
46976;DHT22;32724;51.094;6.996;2023-04-15T01:14:40;7.50;99.90
46976;DHT22;32724;51.094;6.996;2023-04-15T01:17:06;7.20;99.90
46976;DHT22;32724;51.094;6.996;2023-04-15T01:19:32;7.10;99.90
46976;DHT22;32724;51.094;6.996;2023-04-15T01:21:57;7.10;99.90
46976;DHT22;32724;51.094;6.996;2023-04-15T01:24:23;7.10;99.90
46976;DHT22;32724;51.094;6.996;2023-04-15T01:26:50;7.10;99.90
46976;DHT22;32724;51.094;6.996;2023-04-15T01:29:16;7.10;99.90
46976;DHT22;32724;51.094;6.996;2023-04-15T01:31:49;7.10;99.90
46976;DHT22;32724;51.094;6.996;2023-04-15T01:34:15;7.10;99.90
46976;DHT22;32724;51.094;6.996;2023-04-15T01:36:40;7.00;99.90
46976;DHT22;32724;51.094;6.996;2023-04-15T01:39:06;6.90;99.90
46976;DHT22;32724;51.094;6.996;2023-04-15T01:41:32;6.80;99.90
46976;DHT22;32724;51.094;6.996;2023-04-15T01:43:58;6.70;99.90
46976;DHT22;32724;51.094;6.996;2023-04-15T01:46:23;6.60;99.90
46976;DHT22;32724;51.094;6.996;2023-04-15T01:48:49;6.60;99.90
46976;DHT22;32724;51.094;6.996;2023-04-15T01:51:14;6.50;99.90
46976;DHT22;32724;51.094;6.996;2023-04-15T01:53:40;6.40;99.90
46976;DHT22;32724;51.094;6.996;2023-04-15T01:56:06;6.40;99.90
46976;DHT22;32724;51.094;6.996;2023-04-15T01:58:32;6.30;99.90
46976;DHT22;32724;51.094;6.996;2023-04-15T02:00:57;6.20;99.90
46976;DHT22;32724;51.094;6.996;2023-04-15T02:03:27;5.90;99.90
46976;DHT22;32724;51.094;6.996;2023-04-15T02:05:52;5.50;99.90
46976;DHT22;32724;51.094;6.996;2023-04-15T02:08:18;5.30;99.90
46976;DHT22;32724;51.094;6.996;2023-04-15T02:10:43;5.30;99.90
46976;DHT22;32724;51.094;6.996;2023-04-15T02:13:09;5.20;99.90
46976;DHT22;32724;51.094;6.996;2023-04-15T02:15:35;5.20;99.90
46976;DHT22;32724;51.094;6.996;2023-04-15T02:18:00;5.20;99.90
46976;DHT22;32724;51.094;6.996;2023-04-15T02:20:26;5.10;99.90
46976;DHT22;32724;51.094;6.996;2023-04-15T02:22:52;4.90;99.90
46976;DHT22;32724;51.094;6.996;2023-04-15T02:25:17;4.90;99.90
46976;DHT22;32724;51.094;6.996;2023-04-15T02:27:44;4.80;99.90
46976;DHT22;32724;51.094;6.996;2023-04-15T02:30:09;4.80;99.90
46976;DHT22;32724;51.094;6.996;2023-04-15T02:32:35;4.80;99.90
46976;DHT22;32724;51.094;6.996;2023-04-15T02:35:06;4.80;99.90
46976;DHT22;32724;51.094;6.996;2023-04-15T02:37:32;4.90;99.90
46976;DHT22;32724;51.094;6.996;2023-04-15T02:40:01;4.90;99.90
46976;DHT22;32724;51.094;6.996;2023-04-15T02:42:27;4.80;99.90
46976;DHT22;32724;51.094;6.996;2023-04-15T02:44:54;4.70;99.90
46976;DHT22;32724;51.094;6.996;2023-04-15T02:47:20;4.60;99.90
46976;DHT22;32724;51.094;6.996;2023-04-15T02:49:45;4.50;99.90
46976;DHT22;32724;51.094;6.996;2023-04-15T02:52:11;4.40;99.90
46976;DHT22;32724;51.094;6.996;2023-04-15T02:54:36;4.40;99.90
46976;DHT22;32724;51.094;6.996;2023-04-15T02:57:02;4.30;99.90
46976;DHT22;32724;51.094;6.996;2023-04-15T02:59:30;4.30;99.90
46976;DHT22;32724;51.094;6.996;2023-04-15T03:01:56;4.20;99.90
46976;DHT22;32724;51.094;6.996;2023-04-15T03:04:25;4.20;99.90
46976;DHT22;32724;51.094;6.996;2023-04-15T03:06:50;4.20;99.90
46976;DHT22;32724;51.094;6.996;2023-04-15T03:09:16;4.20;99.90
46976;DHT22;32724;51.094;6.996;2023-04-15T03:11:41;4.20;99.90
46976;DHT22;32724;51.094;6.996;2023-04-15T03:14:07;4.10;99.90
46976;DHT22;32724;51.094;6.996;2023-04-15T03:16:32;4.10;99.90
46976;DHT22;32724;51.094;6.996;2023-04-15T03:18:58;4.10;99.90
46976;DHT22;32724;51.094;6.996;2023-04-15T03:21:23;4.10;99.90
46976;DHT22;32724;51.094;6.996;2023-04-15T03:23:48;4.00;99.90
46976;DHT22;32724;51.094;6.996;2023-04-15T03:26:25;4.00;99.90
46976;DHT22;32724;51.094;6.996;2023-04-15T03:28:50;3.90;99.90
46976;DHT22;32724;51.094;6.996;2023-04-15T03:31:15;3.90;99.90
46976;DHT22;32724;51.094;6.996;2023-04-15T03:33:41;3.90;99.90
46976;DHT22;32724;51.094;6.996;2023-04-15T03:36:06;3.90;99.90
46976;DHT22;32724;51.094;6.996;2023-04-15T03:38:32;3.80;99.90
46976;DHT22;32724;51.094;6.996;2023-04-15T03:40:57;3.70;99.90
46976;DHT22;32724;51.094;6.996;2023-04-15T03:43:23;3.60;99.90
46976;DHT22;32724;51.094;6.996;2023-04-15T03:45:48;3.70;99.90
46976;DHT22;32724;51.094;6.996;2023-04-15T03:48:14;3.70;99.90
46976;DHT22;32724;51.094;6.996;2023-04-15T03:50:39;3.60;99.90
46976;DHT22;32724;51.094;6.996;2023-04-15T03:55:30;3.70;99.90
46976;DHT22;32724;51.094;6.996;2023-04-15T03:57:55;3.70;99.90
46976;DHT22;32724;51.094;6.996;2023-04-15T04:00:21;3.70;99.90
46976;DHT22;32724;51.094;6.996;2023-04-15T04:02:46;3.70;99.90
46976;DHT22;32724;51.094;6.996;2023-04-15T04:05:12;3.60;99.90
46976;DHT22;32724;51.094;6.996;2023-04-15T04:07:37;3.60;99.90
46976;DHT22;32724;51.094;6.996;2023-04-15T04:10:03;3.60;99.90
46976;DHT22;32724;51.094;6.996;2023-04-15T04:12:28;3.60;99.90
46976;DHT22;32724;51.094;6.996;2023-04-15T04:14:54;3.60;99.90
46976;DHT22;32724;51.094;6.996;2023-04-15T04:17:19;3.50;99.90
46976;DHT22;32724;51.094;6.996;2023-04-15T04:19:45;3.50;99.90
46976;DHT22;32724;51.094;6.996;2023-04-15T04:22:10;3.40;99.90
46976;DHT22;32724;51.094;6.996;2023-04-15T04:24:36;3.20;99.90
46976;DHT22;32724;51.094;6.996;2023-04-15T04:27:01;3.00;99.90
46976;DHT22;32724;51.094;6.996;2023-04-15T04:29:27;2.90;99.90
46976;DHT22;32724;51.094;6.996;2023-04-15T04:31:52;2.80;99.90
46976;DHT22;32724;51.094;6.996;2023-04-15T04:34:18;2.70;99.90
46976;DHT22;32724;51.094;6.996;2023-04-15T04:36:43;2.80;99.90
46976;DHT22;32724;51.094;6.996;2023-04-15T04:39:09;2.90;99.90
46976;DHT22;32724;51.094;6.996;2023-04-15T04:41:34;3.00;99.90
46976;DHT22;32724;51.094;6.996;2023-04-15T04:44:00;3.00;99.90
46976;DHT22;32724;51.094;6.996;2023-04-15T04:46:25;3.00;99.90
46976;DHT22;32724;51.094;6.996;2023-04-15T04:48:51;3.00;99.90
46976;DHT22;32724;51.094;6.996;2023-04-15T04:51:16;3.00;99.90
46976;DHT22;32724;51.094;6.996;2023-04-15T04:53:42;3.00;99.90
46976;DHT22;32724;51.094;6.996;2023-04-15T04:56:07;3.10;99.90
46976;DHT22;32724;51.094;6.996;2023-04-15T04:58:33;3.00;99.90
46976;DHT22;32724;51.094;6.996;2023-04-15T05:00:58;3.10;99.90
46976;DHT22;32724;51.094;6.996;2023-04-15T05:03:24;3.10;99.90
46976;DHT22;32724;51.094;6.996;2023-04-15T05:05:49;3.10;99.90
46976;DHT22;32724;51.094;6.996;2023-04-15T05:08:15;3.10;99.90
46976;DHT22;32724;51.094;6.996;2023-04-15T05:10:41;3.10;99.90
46976;DHT22;32724;51.094;6.996;2023-04-15T05:13:06;3.10;99.90
46976;DHT22;32724;51.094;6.996;2023-04-15T05:15:32;3.10;99.90
46976;DHT22;32724;51.094;6.996;2023-04-15T05:17:59;3.20;99.90
46976;DHT22;32724;51.094;6.996;2023-04-15T05:20:26;3.40;99.90
46976;DHT22;32724;51.094;6.996;2023-04-15T05:22:51;3.70;99.90
46976;DHT22;32724;51.094;6.996;2023-04-15T05:25:17;3.30;99.90
46976;DHT22;32724;51.094;6.996;2023-04-15T05:27:42;3.20;99.90
46976;DHT22;32724;51.094;6.996;2023-04-15T05:30:08;3.30;99.90
46976;DHT22;32724;51.094;6.996;2023-04-15T05:32:33;3.40;99.90
46976;DHT22;32724;51.094;6.996;2023-04-15T05:34:59;3.50;99.90
46976;DHT22;32724;51.094;6.996;2023-04-15T05:37:25;3.70;99.90
46976;DHT22;32724;51.094;6.996;2023-04-15T05:39:50;3.90;99.90
46976;DHT22;32724;51.094;6.996;2023-04-15T05:42:16;4.00;99.90
46976;DHT22;32724;51.094;6.996;2023-04-15T05:44:41;4.20;99.90
46976;DHT22;32724;51.094;6.996;2023-04-15T05:47:07;4.40;99.90
46976;DHT22;32724;51.094;6.996;2023-04-15T05:49:33;4.90;99.90
46976;DHT22;32724;51.094;6.996;2023-04-15T05:51:59;5.50;99.90
46976;DHT22;32724;51.094;6.996;2023-04-15T05:54:25;6.00;99.90
46976;DHT22;32724;51.094;6.996;2023-04-15T05:56:52;6.40;99.90
46976;DHT22;32724;51.094;6.996;2023-04-15T05:59:17;6.60;99.90
46976;DHT22;32724;51.094;6.996;2023-04-15T06:01:43;6.70;99.90
46976;DHT22;32724;51.094;6.996;2023-04-15T06:04:09;7.00;99.90
46976;DHT22;32724;51.094;6.996;2023-04-15T06:06:36;6.80;99.90
46976;DHT22;32724;51.094;6.996;2023-04-15T06:09:02;7.20;99.90
46976;DHT22;32724;51.094;6.996;2023-04-15T06:11:28;7.70;99.90
46976;DHT22;32724;51.094;6.996;2023-04-15T06:13:53;7.90;99.90
46976;DHT22;32724;51.094;6.996;2023-04-15T06:16:19;7.90;99.90
46976;DHT22;32724;51.094;6.996;2023-04-15T06:18:44;7.90;99.90
46976;DHT22;32724;51.094;6.996;2023-04-15T06:21:10;8.30;99.90
46976;DHT22;32724;51.094;6.996;2023-04-15T06:23:35;8.40;99.90
46976;DHT22;32724;51.094;6.996;2023-04-15T06:26:01;8.90;99.90
46976;DHT22;32724;51.094;6.996;2023-04-15T06:28:27;9.60;99.90
46976;DHT22;32724;51.094;6.996;2023-04-15T06:30:52;10.10;99.90
46976;DHT22;32724;51.094;6.996;2023-04-15T06:33:18;10.60;99.90
46976;DHT22;32724;51.094;6.996;2023-04-15T06:35:43;11.00;99.90
46976;DHT22;32724;51.094;6.996;2023-04-15T06:38:09;11.40;99.90
46976;DHT22;32724;51.094;6.996;2023-04-15T06:40:34;11.70;99.90
46976;DHT22;32724;51.094;6.996;2023-04-15T06:43:00;11.90;99.90
46976;DHT22;32724;51.094;6.996;2023-04-15T06:45:26;11.80;99.90
46976;DHT22;32724;51.094;6.996;2023-04-15T06:47:51;11.80;99.90
46976;DHT22;32724;51.094;6.996;2023-04-15T06:50:17;11.80;99.90
46976;DHT22;32724;51.094;6.996;2023-04-15T06:52:42;11.80;99.90
46976;DHT22;32724;51.094;6.996;2023-04-15T06:55:08;11.40;99.90
46976;DHT22;32724;51.094;6.996;2023-04-15T06:57:34;10.90;99.90
46976;DHT22;32724;51.094;6.996;2023-04-15T07:00:00;10.70;99.90
46976;DHT22;32724;51.094;6.996;2023-04-15T07:02:25;10.70;99.90
46976;DHT22;32724;51.094;6.996;2023-04-15T07:04:51;10.70;99.90
46976;DHT22;32724;51.094;6.996;2023-04-15T07:07:16;10.80;99.90
46976;DHT22;32724;51.094;6.996;2023-04-15T07:09:42;11.00;99.90
46976;DHT22;32724;51.094;6.996;2023-04-15T07:12:08;11.00;99.90
46976;DHT22;32724;51.094;6.996;2023-04-15T07:14:33;11.20;99.90
46976;DHT22;32724;51.094;6.996;2023-04-15T07:16:58;11.50;99.90
46976;DHT22;32724;51.094;6.996;2023-04-15T07:19:24;11.60;99.90
46976;DHT22;32724;51.094;6.996;2023-04-15T07:21:50;11.70;99.90
46976;DHT22;32724;51.094;6.996;2023-04-15T07:24:16;11.90;99.90
46976;DHT22;32724;51.094;6.996;2023-04-15T07:26:43;12.10;99.90
46976;DHT22;32724;51.094;6.996;2023-04-15T07:29:08;12.20;99.90
46976;DHT22;32724;51.094;6.996;2023-04-15T07:31:34;12.40;99.90
46976;DHT22;32724;51.094;6.996;2023-04-15T07:34:01;12.40;99.90
46976;DHT22;32724;51.094;6.996;2023-04-15T07:36:26;12.50;99.90
46976;DHT22;32724;51.094;6.996;2023-04-15T07:38:53;12.50;99.90
46976;DHT22;32724;51.094;6.996;2023-04-15T07:41:19;12.60;99.90
46976;DHT22;32724;51.094;6.996;2023-04-15T07:43:45;12.60;99.90
46976;DHT22;32724;51.094;6.996;2023-04-15T07:46:10;12.60;99.90
46976;DHT22;32724;51.094;6.996;2023-04-15T07:48:36;12.60;99.90
46976;DHT22;32724;51.094;6.996;2023-04-15T07:51:01;12.50;99.90
46976;DHT22;32724;51.094;6.996;2023-04-15T07:53:28;12.30;99.90
46976;DHT22;32724;51.094;6.996;2023-04-15T07:55:54;12.20;99.90
46976;DHT22;32724;51.094;6.996;2023-04-15T07:58:20;12.20;99.90
46976;DHT22;32724;51.094;6.996;2023-04-15T08:00:45;12.10;99.90
46976;DHT22;32724;51.094;6.996;2023-04-15T08:03:11;12.00;99.90
46976;DHT22;32724;51.094;6.996;2023-04-15T08:05:36;12.10;99.90
46976;DHT22;32724;51.094;6.996;2023-04-15T08:08:02;12.20;99.90
46976;DHT22;32724;51.094;6.996;2023-04-15T08:10:28;12.20;99.90
46976;DHT22;32724;51.094;6.996;2023-04-15T08:12:53;12.30;99.90
46976;DHT22;32724;51.094;6.996;2023-04-15T08:15:19;12.40;99.90
46976;DHT22;32724;51.094;6.996;2023-04-15T08:17:45;12.60;99.90
46976;DHT22;32724;51.094;6.996;2023-04-15T08:20:10;12.60;99.90
46976;DHT22;32724;51.094;6.996;2023-04-15T08:22:37;12.60;99.90
46976;DHT22;32724;51.094;6.996;2023-04-15T08:25:03;12.40;99.90
46976;DHT22;32724;51.094;6.996;2023-04-15T08:27:28;12.30;99.90
46976;DHT22;32724;51.094;6.996;2023-04-15T08:29:54;12.30;99.90
46976;DHT22;32724;51.094;6.996;2023-04-15T08:32:19;12.30;99.90
46976;DHT22;32724;51.094;6.996;2023-04-15T08:34:45;12.30;99.90
46976;DHT22;32724;51.094;6.996;2023-04-15T08:37:10;12.20;99.90
46976;DHT22;32724;51.094;6.996;2023-04-15T08:39:36;12.10;99.90
46976;DHT22;32724;51.094;6.996;2023-04-15T08:42:02;12.20;99.90
46976;DHT22;32724;51.094;6.996;2023-04-15T08:44:28;12.20;99.90
46976;DHT22;32724;51.094;6.996;2023-04-15T08:46:55;12.30;99.90
46976;DHT22;32724;51.094;6.996;2023-04-15T08:49:21;12.40;99.90
46976;DHT22;32724;51.094;6.996;2023-04-15T08:51:48;12.50;99.90
46976;DHT22;32724;51.094;6.996;2023-04-15T08:54:14;12.70;99.90
46976;DHT22;32724;51.094;6.996;2023-04-15T08:56:40;12.90;99.90
46976;DHT22;32724;51.094;6.996;2023-04-15T08:59:06;12.90;99.90
46976;DHT22;32724;51.094;6.996;2023-04-15T09:01:33;12.80;99.90
46976;DHT22;32724;51.094;6.996;2023-04-15T09:03:58;12.80;99.90
46976;DHT22;32724;51.094;6.996;2023-04-15T09:06:24;12.90;99.90
46976;DHT22;32724;51.094;6.996;2023-04-15T09:08:50;13.00;99.90
46976;DHT22;32724;51.094;6.996;2023-04-15T09:11:16;13.10;99.90
46976;DHT22;32724;51.094;6.996;2023-04-15T09:13:42;13.20;99.90
46976;DHT22;32724;51.094;6.996;2023-04-15T09:16:07;13.30;99.90
46976;DHT22;32724;51.094;6.996;2023-04-15T09:18:34;13.20;99.90
46976;DHT22;32724;51.094;6.996;2023-04-15T09:21:07;13.10;99.90
46976;DHT22;32724;51.094;6.996;2023-04-15T09:23:33;12.90;99.90
46976;DHT22;32724;51.094;6.996;2023-04-15T09:25:59;12.60;99.90
46976;DHT22;32724;51.094;6.996;2023-04-15T09:28:25;12.50;99.90
46976;DHT22;32724;51.094;6.996;2023-04-15T09:30:56;12.50;99.90
46976;DHT22;32724;51.094;6.996;2023-04-15T09:33:22;12.40;99.90
46976;DHT22;32724;51.094;6.996;2023-04-15T09:36:03;12.50;99.90
46976;DHT22;32724;51.094;6.996;2023-04-15T09:38:30;12.40;99.90
46976;DHT22;32724;51.094;6.996;2023-04-15T09:40:55;12.50;99.90
46976;DHT22;32724;51.094;6.996;2023-04-15T09:43:21;12.80;99.90
46976;DHT22;32724;51.094;6.996;2023-04-15T09:45:48;13.00;99.90
46976;DHT22;32724;51.094;6.996;2023-04-15T09:50:42;13.40;99.90
46976;DHT22;32724;51.094;6.996;2023-04-15T09:53:14;13.50;99.90
46976;DHT22;32724;51.094;6.996;2023-04-15T09:55:42;13.40;99.90
46976;DHT22;32724;51.094;6.996;2023-04-15T09:58:08;13.60;99.90
46976;DHT22;32724;51.094;6.996;2023-04-15T10:00:34;13.70;99.90
46976;DHT22;32724;51.094;6.996;2023-04-15T10:03:00;13.70;99.90
46976;DHT22;32724;51.094;6.996;2023-04-15T10:05:27;13.40;99.90
46976;DHT22;32724;51.094;6.996;2023-04-15T10:07:53;13.20;99.90
46976;DHT22;32724;51.094;6.996;2023-04-15T10:10:19;13.30;99.90
46976;DHT22;32724;51.094;6.996;2023-04-15T10:12:44;13.20;99.90
46976;DHT22;32724;51.094;6.996;2023-04-15T10:15:13;13.20;99.90
46976;DHT22;32724;51.094;6.996;2023-04-15T10:17:39;13.70;99.90
46976;DHT22;32724;51.094;6.996;2023-04-15T10:20:08;13.80;99.90
46976;DHT22;32724;51.094;6.996;2023-04-15T10:22:34;14.10;99.90
46976;DHT22;32724;51.094;6.996;2023-04-15T10:25:00;14.20;99.90
46976;DHT22;32724;51.094;6.996;2023-04-15T10:27:26;14.40;99.90
46976;DHT22;32724;51.094;6.996;2023-04-15T10:29:53;14.50;99.90
46976;DHT22;32724;51.094;6.996;2023-04-15T10:32:19;14.60;99.90
46976;DHT22;32724;51.094;6.996;2023-04-15T10:34:46;13.90;99.90
46976;DHT22;32724;51.094;6.996;2023-04-15T10:37:11;13.70;99.90
46976;DHT22;32724;51.094;6.996;2023-04-15T10:39:40;13.80;99.90
46976;DHT22;32724;51.094;6.996;2023-04-15T10:42:16;13.80;99.90
46976;DHT22;32724;51.094;6.996;2023-04-15T10:44:43;13.30;99.90
46976;DHT22;32724;51.094;6.996;2023-04-15T10:47:10;13.00;99.90
46976;DHT22;32724;51.094;6.996;2023-04-15T10:49:44;13.00;99.90
46976;DHT22;32724;51.094;6.996;2023-04-15T10:52:10;13.00;99.90
46976;DHT22;32724;51.094;6.996;2023-04-15T10:54:36;12.80;99.90
46976;DHT22;32724;51.094;6.996;2023-04-15T10:59:34;12.90;99.90
46976;DHT22;32724;51.094;6.996;2023-04-15T11:02:01;13.00;99.90
46976;DHT22;32724;51.094;6.996;2023-04-15T11:07:11;13.00;99.90
46976;DHT22;32724;51.094;6.996;2023-04-15T11:09:36;13.20;99.90
46976;DHT22;32724;51.094;6.996;2023-04-15T11:12:08;13.40;99.90
46976;DHT22;32724;51.094;6.996;2023-04-15T11:14:40;13.50;99.90
46976;DHT22;32724;51.094;6.996;2023-04-15T11:17:07;13.60;99.90
46976;DHT22;32724;51.094;6.996;2023-04-15T11:19:36;14.00;99.90
46976;DHT22;32724;51.094;6.996;2023-04-15T11:22:06;14.20;99.90
46976;DHT22;32724;51.094;6.996;2023-04-15T11:24:32;14.10;99.90
46976;DHT22;32724;51.094;6.996;2023-04-15T11:26:57;14.10;99.90
46976;DHT22;32724;51.094;6.996;2023-04-15T11:29:30;14.00;99.90
46976;DHT22;32724;51.094;6.996;2023-04-15T11:32:05;13.60;99.90
46976;DHT22;32724;51.094;6.996;2023-04-15T11:34:31;13.60;99.90
46976;DHT22;32724;51.094;6.996;2023-04-15T11:36:57;13.40;99.90
46976;DHT22;32724;51.094;6.996;2023-04-15T11:39:22;13.20;99.90
46976;DHT22;32724;51.094;6.996;2023-04-15T11:41:48;13.20;99.90
46976;DHT22;32724;51.094;6.996;2023-04-15T11:44:16;13.50;99.90
46976;DHT22;32724;51.094;6.996;2023-04-15T11:46:43;13.40;99.90
46976;DHT22;32724;51.094;6.996;2023-04-15T11:49:08;13.10;99.90
46976;DHT22;32724;51.094;6.996;2023-04-15T11:51:34;13.10;99.90
46976;DHT22;32724;51.094;6.996;2023-04-15T11:53:59;13.00;99.90
46976;DHT22;32724;51.094;6.996;2023-04-15T11:56:25;13.00;99.90
46976;DHT22;32724;51.094;6.996;2023-04-15T11:58:52;12.70;99.90
46976;DHT22;32724;51.094;6.996;2023-04-15T12:01:18;12.60;99.90
46976;DHT22;32724;51.094;6.996;2023-04-15T12:03:47;12.60;99.90
46976;DHT22;32724;51.094;6.996;2023-04-15T12:06:31;12.50;99.90
46976;DHT22;32724;51.094;6.996;2023-04-15T12:11:47;12.40;99.90
46976;DHT22;32724;51.094;6.996;2023-04-15T12:16:44;12.00;99.90
46976;DHT22;32724;51.094;6.996;2023-04-15T12:19:11;11.90;99.90
46976;DHT22;32724;51.094;6.996;2023-04-15T12:21:39;11.90;99.90
46976;DHT22;32724;51.094;6.996;2023-04-15T12:24:06;12.00;99.90
46976;DHT22;32724;51.094;6.996;2023-04-15T12:26:45;12.20;99.90
46976;DHT22;32724;51.094;6.996;2023-04-15T12:29:11;12.20;99.90
46976;DHT22;32724;51.094;6.996;2023-04-15T12:31:47;12.10;99.90
46976;DHT22;32724;51.094;6.996;2023-04-15T12:34:14;12.10;99.90
46976;DHT22;32724;51.094;6.996;2023-04-15T12:36:39;12.10;99.90
46976;DHT22;32724;51.094;6.996;2023-04-15T12:39:05;11.90;99.90
46976;DHT22;32724;51.094;6.996;2023-04-15T12:41:31;11.80;99.90
46976;DHT22;32724;51.094;6.996;2023-04-15T12:43:57;11.70;99.90
46976;DHT22;32724;51.094;6.996;2023-04-15T12:46:22;11.70;99.90
46976;DHT22;32724;51.094;6.996;2023-04-15T12:48:48;11.60;99.90
46976;DHT22;32724;51.094;6.996;2023-04-15T12:51:14;11.40;99.90
46976;DHT22;32724;51.094;6.996;2023-04-15T12:53:39;11.40;99.90
46976;DHT22;32724;51.094;6.996;2023-04-15T12:56:05;11.40;99.90
46976;DHT22;32724;51.094;6.996;2023-04-15T12:58:30;11.30;99.90
46976;DHT22;32724;51.094;6.996;2023-04-15T13:00:56;11.20;99.90
46976;DHT22;32724;51.094;6.996;2023-04-15T13:03:22;11.20;99.90
46976;DHT22;32724;51.094;6.996;2023-04-15T13:05:47;11.10;99.90
46976;DHT22;32724;51.094;6.996;2023-04-15T13:08:13;11.10;99.90
46976;DHT22;32724;51.094;6.996;2023-04-15T13:10:38;11.10;99.90
46976;DHT22;32724;51.094;6.996;2023-04-15T13:13:04;11.10;99.90
46976;DHT22;32724;51.094;6.996;2023-04-15T13:15:30;11.00;99.90
46976;DHT22;32724;51.094;6.996;2023-04-15T13:17:55;11.00;99.90
46976;DHT22;32724;51.094;6.996;2023-04-15T13:20:21;11.00;99.90
46976;DHT22;32724;51.094;6.996;2023-04-15T13:22:46;11.00;99.90
46976;DHT22;32724;51.094;6.996;2023-04-15T13:25:12;11.00;99.90
46976;DHT22;32724;51.094;6.996;2023-04-15T13:27:37;10.90;99.90
46976;DHT22;32724;51.094;6.996;2023-04-15T13:30:03;11.00;99.90
46976;DHT22;32724;51.094;6.996;2023-04-15T13:32:29;11.00;99.90
46976;DHT22;32724;51.094;6.996;2023-04-15T13:34:54;11.00;99.90
46976;DHT22;32724;51.094;6.996;2023-04-15T13:37:24;11.00;99.90
46976;DHT22;32724;51.094;6.996;2023-04-15T13:39:50;11.00;99.90
46976;DHT22;32724;51.094;6.996;2023-04-15T13:42:16;11.00;99.90
46976;DHT22;32724;51.094;6.996;2023-04-15T13:44:41;11.20;99.90
46976;DHT22;32724;51.094;6.996;2023-04-15T13:47:07;11.40;99.90
46976;DHT22;32724;51.094;6.996;2023-04-15T13:49:32;11.30;99.90
46976;DHT22;32724;51.094;6.996;2023-04-15T13:51:58;11.30;99.90
46976;DHT22;32724;51.094;6.996;2023-04-15T13:54:23;11.20;99.90
46976;DHT22;32724;51.094;6.996;2023-04-15T13:56:49;11.10;99.90
46976;DHT22;32724;51.094;6.996;2023-04-15T13:59:14;11.00;99.90
46976;DHT22;32724;51.094;6.996;2023-04-15T14:01:40;10.90;99.90
46976;DHT22;32724;51.094;6.996;2023-04-15T14:04:05;10.90;99.90
46976;DHT22;32724;51.094;6.996;2023-04-15T14:06:31;10.90;99.90
46976;DHT22;32724;51.094;6.996;2023-04-15T14:08:56;10.90;99.90
46976;DHT22;32724;51.094;6.996;2023-04-15T14:11:22;11.10;99.90
46976;DHT22;32724;51.094;6.996;2023-04-15T14:13:47;11.10;99.90
46976;DHT22;32724;51.094;6.996;2023-04-15T14:16:13;11.30;99.90
46976;DHT22;32724;51.094;6.996;2023-04-15T14:18:38;11.20;99.90
46976;DHT22;32724;51.094;6.996;2023-04-15T14:21:04;11.20;99.90
46976;DHT22;32724;51.094;6.996;2023-04-15T14:23:30;11.20;99.90
46976;DHT22;32724;51.094;6.996;2023-04-15T14:25:56;11.10;99.90
46976;DHT22;32724;51.094;6.996;2023-04-15T14:28:21;11.10;99.90
46976;DHT22;32724;51.094;6.996;2023-04-15T14:30:47;11.10;99.90
46976;DHT22;32724;51.094;6.996;2023-04-15T14:33:12;10.90;99.90
46976;DHT22;32724;51.094;6.996;2023-04-15T14:35:38;10.80;99.90
46976;DHT22;32724;51.094;6.996;2023-04-15T14:38:03;10.80;99.90
46976;DHT22;32724;51.094;6.996;2023-04-15T14:40:32;10.80;99.90
46976;DHT22;32724;51.094;6.996;2023-04-15T14:42:57;10.90;99.90
46976;DHT22;32724;51.094;6.996;2023-04-15T14:45:23;11.00;99.90
46976;DHT22;32724;51.094;6.996;2023-04-15T14:47:48;11.20;99.90
46976;DHT22;32724;51.094;6.996;2023-04-15T14:50:14;11.20;99.90
46976;DHT22;32724;51.094;6.996;2023-04-15T14:52:39;11.20;99.90
46976;DHT22;32724;51.094;6.996;2023-04-15T14:55:05;11.20;99.90
46976;DHT22;32724;51.094;6.996;2023-04-15T14:57:31;11.30;99.90
46976;DHT22;32724;51.094;6.996;2023-04-15T14:59:56;11.30;99.90
46976;DHT22;32724;51.094;6.996;2023-04-15T15:02:23;11.40;99.90
46976;DHT22;32724;51.094;6.996;2023-04-15T15:04:49;11.20;99.90
46976;DHT22;32724;51.094;6.996;2023-04-15T15:07:14;11.10;99.90
46976;DHT22;32724;51.094;6.996;2023-04-15T15:09:40;10.90;99.90
46976;DHT22;32724;51.094;6.996;2023-04-15T15:12:05;10.90;99.90
46976;DHT22;32724;51.094;6.996;2023-04-15T15:14:31;10.80;99.90
46976;DHT22;32724;51.094;6.996;2023-04-15T15:16:56;10.60;99.90
46976;DHT22;32724;51.094;6.996;2023-04-15T15:19:22;10.50;99.90
46976;DHT22;32724;51.094;6.996;2023-04-15T15:21:49;10.40;99.90
46976;DHT22;32724;51.094;6.996;2023-04-15T15:24:14;10.30;99.90
46976;DHT22;32724;51.094;6.996;2023-04-15T15:26:40;10.20;99.90
46976;DHT22;32724;51.094;6.996;2023-04-15T15:29:05;10.10;99.90
46976;DHT22;32724;51.094;6.996;2023-04-15T15:31:31;10.00;99.90
46976;DHT22;32724;51.094;6.996;2023-04-15T15:33:56;10.00;99.90
46976;DHT22;32724;51.094;6.996;2023-04-15T15:36:22;10.00;99.90
46976;DHT22;32724;51.094;6.996;2023-04-15T15:38:47;10.00;99.90
46976;DHT22;32724;51.094;6.996;2023-04-15T15:41:13;10.10;99.90
46976;DHT22;32724;51.094;6.996;2023-04-15T15:43:39;10.20;99.90
46976;DHT22;32724;51.094;6.996;2023-04-15T15:46:05;10.20;99.90